Cherry Box, Missouri
Current Conditions -  °F | °C
As of 3:55 PM on Saturday 25 Oct 2014 (Local Time) from KIRK Reporting Station
Clear Clear  
Wind Chill: 78°   Ceiling: Unl
Heat Index: 79°   Visibility: 10mi
Dew Point: 51°   Wind: 5mph
Humidity: 39%   Direction: 20°NNE
Pressure: 30.05"   Gusts: NA
Location:  39.735°N, 92.239°W
Report Text: KIRK 252055Z AUTO 02004KT 10SM CLR 26/11 A3005 RMK AO2 SLP174 T02560106 56009
Loading
Personal Weather Stations






























Interactive Weather Map
Tropical Storm Tracking
New forecast layout! Learn more

10-Day Weather Forecast

Advertisements
Track Severe Weather on mobile